createdAt,value
2018-04-10T00:01:26.979Z,87.50
2018-04-10T00:03:57.086Z,87.60
2018-04-10T00:06:26.980Z,87.60
2018-04-10T00:08:56.993Z,88.00
2018-04-10T00:11:26.939Z,88.30
2018-04-10T00:13:56.861Z,88.30
2018-04-10T00:16:26.819Z,88.90
2018-04-10T00:18:56.743Z,88.90
2018-04-10T00:21:26.703Z,89.30
2018-04-10T00:23:56.617Z,89.50
2018-04-10T00:26:26.584Z,89.10
2018-04-10T00:28:57.333Z,89.20
2018-04-10T00:31:27.304Z,89.30
2018-04-10T00:33:57.221Z,89.40
2018-04-10T00:36:27.352Z,89.60
2018-04-10T00:38:57.308Z,89.50
2018-04-10T00:41:27.221Z,89.70
2018-04-10T00:43:57.190Z,90.20
2018-04-10T00:46:27.828Z,90.00
2018-04-10T00:48:57.791Z,90.10
2018-04-10T00:51:28.514Z,90.50
2018-04-10T00:53:58.436Z,90.10
2018-04-10T00:56:29.152Z,90.30
2018-04-10T00:58:59.116Z,90.20
2018-04-10T01:01:28.941Z,90.20
2018-04-10T01:03:58.755Z,90.50
2018-04-10T01:06:28.614Z,90.30
2018-04-10T01:08:58.388Z,90.30
2018-04-10T01:11:28.188Z,90.30
2018-04-10T01:13:58.015Z,90.30
2018-04-10T01:16:28.599Z,90.30
2018-04-10T01:18:58.424Z,90.30
2018-04-10T01:21:28.235Z,90.40
2018-04-10T01:23:58.064Z,90.50
2018-04-10T01:26:27.879Z,90.60
2018-04-10T01:28:57.679Z,90.60
2018-04-10T01:31:27.503Z,90.60
2018-04-10T01:33:57.315Z,90.70
2018-04-10T01:36:27.128Z,90.60
2018-04-10T01:38:56.931Z,90.60
2018-04-10T01:41:26.747Z,90.80
2018-04-10T01:43:56.570Z,90.90
2018-04-10T01:46:26.387Z,90.80
2018-04-10T01:48:56.196Z,91.00
2018-04-10T01:51:26.014Z,90.80
2018-04-10T01:53:55.815Z,91.00
2018-04-10T01:56:25.620Z,91.10
2018-04-10T01:58:55.432Z,91.00
2018-04-10T02:01:25.249Z,91.20
2018-04-10T02:03:55.046Z,91.20
2018-04-10T02:06:24.952Z,91.10
2018-04-10T02:08:54.832Z,91.30
2018-04-10T02:11:24.651Z,91.30
2018-04-10T02:13:54.463Z,91.30
2018-04-10T02:16:24.282Z,91.40
2018-04-10T02:18:54.088Z,91.40
2018-04-10T02:21:23.899Z,91.50
2018-04-10T02:23:53.704Z,91.50
2018-04-10T02:26:23.515Z,91.50
2018-04-10T02:28:53.322Z,91.60
2018-04-10T02:31:23.903Z,91.70
2018-04-10T02:33:53.726Z,91.70
2018-04-10T02:36:23.540Z,91.80
2018-04-10T02:38:53.344Z,91.90
2018-04-10T02:41:23.166Z,91.90
2018-04-10T02:43:52.967Z,91.80
2018-04-10T02:46:22.779Z,91.90
2018-04-10T02:48:52.600Z,92.00
2018-04-10T02:51:22.421Z,92.10
2018-04-10T02:53:52.223Z,92.10
2018-04-10T02:56:22.040Z,92.10
2018-04-10T02:58:51.848Z,92.30
2018-04-10T03:01:21.663Z,92.40
2018-04-10T03:03:51.470Z,92.30
2018-04-10T03:06:21.293Z,92.40
2018-04-10T03:08:51.103Z,92.40
2018-04-10T03:11:20.919Z,92.40
2018-04-10T03:13:50.727Z,92.40
2018-04-10T03:16:20.544Z,92.50
2018-04-10T03:18:50.356Z,92.40
2018-04-10T03:21:20.209Z,92.30
2018-04-10T03:23:49.974Z,92.40
2018-04-10T03:26:19.786Z,92.40
2018-04-10T03:28:49.603Z,92.90
2018-04-10T03:31:19.426Z,92.60
2018-04-10T03:33:49.232Z,92.80
2018-04-10T03:36:19.064Z,92.80
2018-04-10T03:38:49.633Z,93.10
2018-04-10T03:41:19.454Z,93.10
2018-04-10T03:43:49.268Z,93.20
2018-04-10T03:46:19.083Z,93.20
2018-04-10T03:48:48.883Z,93.20
2018-04-10T03:51:18.692Z,93.20
2018-04-10T03:53:48.508Z,93.20
2018-04-10T03:56:18.320Z,93.40
2018-04-10T03:58:48.131Z,93.30
2018-04-10T04:01:17.947Z,93.40
2018-04-10T04:03:47.764Z,93.30
2018-04-10T04:06:17.580Z,93.80
2018-04-10T04:08:47.411Z,93.50
2018-04-10T04:11:17.233Z,93.60
2018-04-10T04:13:47.045Z,93.70
2018-04-10T04:16:34.657Z,93.90
2018-04-10T04:19:22.168Z,93.80
2018-04-10T04:22:07.391Z,93.80
2018-04-10T04:24:37.962Z,94.00
2018-04-10T04:27:07.783Z,94.00
2018-04-10T04:29:37.599Z,94.10
2018-04-10T04:32:07.417Z,94.20
2018-04-10T04:34:37.222Z,94.30
2018-04-10T04:37:07.067Z,94.20
2018-04-10T04:39:36.871Z,94.20
2018-04-10T04:42:06.691Z,94.30
2018-04-10T04:44:37.108Z,94.10
2018-04-10T04:47:07.067Z,94.20
2018-04-10T04:49:36.875Z,94.20
2018-04-10T04:52:06.705Z,94.20
2018-04-10T04:54:36.514Z,94.10
2018-04-10T04:57:06.323Z,94.20
2018-04-10T04:59:36.135Z,94.20
2018-04-10T05:02:05.946Z,94.10
2018-04-10T05:04:35.738Z,94.20
2018-04-10T05:16:43.795Z,94.20
2018-04-10T05:19:13.575Z,94.20
2018-04-10T05:21:43.392Z,94.20
2018-04-10T05:24:13.202Z,94.20
2018-04-10T05:26:43.013Z,94.20
2018-04-10T05:29:12.827Z,94.20
2018-04-10T05:31:42.633Z,94.30
2018-04-10T05:34:12.452Z,94.30
2018-04-10T05:36:42.264Z,94.10
2018-04-10T05:39:12.083Z,93.90
2018-04-10T05:41:41.902Z,94.00
2018-04-10T05:44:11.720Z,93.90
2018-04-10T05:46:41.520Z,93.80
2018-04-10T05:49:11.335Z,93.50
2018-04-10T05:51:41.179Z,93.60
2018-04-10T05:54:10.976Z,93.40
2018-04-10T05:56:40.787Z,93.40
2018-04-10T05:59:10.607Z,93.10
2018-04-10T06:01:41.173Z,93.00
2018-04-10T06:04:10.997Z,92.90
2018-04-10T06:06:41.631Z,92.80
2018-04-10T06:09:11.431Z,92.60
2018-04-10T06:11:41.243Z,92.50
2018-04-10T06:14:11.901Z,92.60
2018-04-10T06:16:41.712Z,92.30
2018-04-10T06:19:11.532Z,92.50
2018-04-10T06:21:41.335Z,92.50
2018-04-10T06:24:11.151Z,92.40
2018-04-10T06:26:40.970Z,92.40
2018-04-10T06:29:10.784Z,92.30
2018-04-10T06:31:40.593Z,92.40
2018-04-10T06:34:10.403Z,92.20
2018-04-10T06:36:40.207Z,92.00
2018-04-10T06:39:10.028Z,91.70
2018-04-10T06:41:39.839Z,91.30
2018-04-10T06:44:09.649Z,91.30
2018-04-10T06:46:39.442Z,91.10
2018-04-10T06:49:09.250Z,90.90
2018-04-10T06:51:39.067Z,90.70
2018-04-10T06:54:08.880Z,90.50
2018-04-10T06:56:38.685Z,90.40
2018-04-10T06:59:08.497Z,90.40
2018-04-10T07:01:38.321Z,90.10
2018-04-10T07:04:08.123Z,90.20
2018-04-10T07:06:37.928Z,90.20
2018-04-10T07:09:07.744Z,90.10
2018-04-10T07:11:37.560Z,90.30
2018-04-10T07:14:07.372Z,90.50
2018-04-10T07:16:37.171Z,89.90
2018-04-10T07:19:06.987Z,89.80
2018-04-10T07:21:36.793Z,89.80
2018-04-10T07:24:06.612Z,89.30
2018-04-10T07:26:36.419Z,89.40
2018-04-10T07:29:06.244Z,88.20
2018-04-10T07:31:36.053Z,87.90
2018-04-10T07:34:05.915Z,87.30
2018-04-10T07:36:35.683Z,87.70
2018-04-10T07:39:07.119Z,86.90
2018-04-10T07:41:36.930Z,86.20
2018-04-10T07:44:06.747Z,86.30
2018-04-10T07:46:36.559Z,86.50
2018-04-10T07:49:06.374Z,85.50
2018-04-10T07:51:36.192Z,84.90
2018-04-10T07:54:05.995Z,84.50
2018-04-10T07:56:35.799Z,83.20
2018-04-10T07:59:05.607Z,83.40
2018-04-10T08:01:35.412Z,82.60
2018-04-10T08:04:05.227Z,81.50
2018-04-10T08:06:35.051Z,81.40
2018-04-10T08:09:04.870Z,80.90
2018-04-10T08:11:34.672Z,81.80
2018-04-10T08:14:04.486Z,82.30
2018-04-10T08:16:34.284Z,82.70
2018-04-10T08:19:04.864Z,81.80
2018-04-10T08:21:34.684Z,81.80
2018-04-10T08:24:04.497Z,82.40
2018-04-10T08:26:34.295Z,82.30
2018-04-10T08:29:04.116Z,81.50
2018-04-10T08:31:33.928Z,80.50
2018-04-10T08:34:03.737Z,81.20
2018-04-10T08:36:33.534Z,79.50
2018-04-10T08:39:03.367Z,79.40
2018-04-10T08:41:33.176Z,78.10
2018-04-10T08:44:02.996Z,79.30
2018-04-10T08:46:32.812Z,77.90
2018-04-10T08:49:02.628Z,77.30
2018-04-10T08:51:32.443Z,77.80
2018-04-10T08:54:02.270Z,77.60
2018-04-10T08:56:32.852Z,77.30
2018-04-10T08:59:02.670Z,77.20
2018-04-10T09:01:32.465Z,76.20
2018-04-10T09:04:03.057Z,74.80
2018-04-10T09:06:33.622Z,73.00
2018-04-10T09:09:03.439Z,73.00
2018-04-10T09:11:33.237Z,71.60
2018-04-10T09:14:03.052Z,70.30
2018-04-10T09:16:32.861Z,71.60
2018-04-10T09:19:02.682Z,71.70
2018-04-10T09:21:32.487Z,70.40
2018-04-10T09:24:02.309Z,69.10
2018-04-10T09:26:32.106Z,68.60
2018-04-10T09:29:01.935Z,69.50
2018-04-10T09:31:31.734Z,69.30
2018-04-10T09:34:01.550Z,69.50
2018-04-10T09:36:31.352Z,68.20
2018-04-10T09:39:01.184Z,66.80
2018-04-10T09:41:31.001Z,66.90
2018-04-10T09:44:00.812Z,66.00
2018-04-10T09:46:30.619Z,65.50
2018-04-10T09:49:00.428Z,64.80
2018-04-10T09:51:30.240Z,64.30
2018-04-10T09:54:00.056Z,65.00
2018-04-10T09:56:29.873Z,64.60
2018-04-10T09:58:59.679Z,64.60
2018-04-10T10:01:29.499Z,63.00
2018-04-10T10:03:59.308Z,62.50
2018-04-10T10:06:29.124Z,61.80
2018-04-10T10:08:58.934Z,62.40
2018-04-10T10:11:28.741Z,61.00
2018-04-10T10:13:58.544Z,60.90
2018-04-10T10:16:28.351Z,61.10
2018-04-10T10:18:58.177Z,60.60
2018-04-10T10:21:27.997Z,59.50
2018-04-10T10:23:57.811Z,59.40
2018-04-10T10:26:27.647Z,58.80
2018-04-10T10:28:57.458Z,57.50
2018-04-10T10:31:27.272Z,59.20
2018-04-10T10:33:57.088Z,59.50
2018-04-10T10:36:26.909Z,58.30
2018-04-10T10:38:56.729Z,58.60
2018-04-10T10:41:26.541Z,58.90
2018-04-10T10:43:56.347Z,59.10
2018-04-10T10:46:26.170Z,58.70
2018-04-10T10:48:55.975Z,58.90
2018-04-10T10:51:25.804Z,59.00
2018-04-10T10:53:55.615Z,59.30
2018-04-10T10:56:26.216Z,58.80
2018-04-10T10:58:56.022Z,58.80
2018-04-10T11:01:25.852Z,59.50
2018-04-10T11:03:55.662Z,58.40
2018-04-10T11:06:25.485Z,58.40
2018-04-10T11:08:55.299Z,57.50
2018-04-10T11:11:25.108Z,57.50
2018-04-10T11:13:54.918Z,57.90
2018-04-10T11:16:24.728Z,57.60
2018-04-10T11:18:54.532Z,57.50
2018-04-10T11:21:24.344Z,58.40
2018-04-10T11:23:54.156Z,58.40
2018-04-10T11:26:23.962Z,57.20
2018-04-10T11:28:53.775Z,57.40
2018-04-10T11:31:23.579Z,56.90
2018-04-10T11:33:53.388Z,56.50
2018-04-10T11:36:23.212Z,56.60
2018-04-10T11:38:53.033Z,57.50
2018-04-10T11:41:22.849Z,56.20
2018-04-10T11:43:52.657Z,56.30
2018-04-10T11:46:22.467Z,56.20
2018-04-10T11:48:52.280Z,56.00
2018-04-10T11:51:22.085Z,55.60
2018-04-10T11:53:51.884Z,55.70
2018-04-10T11:56:21.699Z,56.30
2018-04-10T11:58:51.501Z,55.90
2018-04-10T12:01:21.314Z,54.90
2018-04-10T12:03:51.118Z,55.10
2018-04-10T12:06:20.936Z,55.20
2018-04-10T12:08:50.740Z,54.90
2018-04-10T12:11:20.545Z,54.90
2018-04-10T12:13:50.352Z,54.50
2018-04-10T12:16:20.183Z,54.90
2018-04-10T12:18:49.972Z,54.20
2018-04-10T12:21:19.784Z,54.20
2018-04-10T12:23:49.594Z,53.80
2018-04-10T12:26:19.401Z,53.60
2018-04-10T12:28:49.211Z,53.10
2018-04-10T12:31:19.037Z,53.00
2018-04-10T12:33:48.838Z,52.50
2018-04-10T12:36:19.408Z,51.70
2018-04-10T12:38:49.215Z,51.70
2018-04-10T12:41:19.030Z,52.40
2018-04-10T12:43:48.834Z,52.60
2018-04-10T12:46:18.648Z,53.20
2018-04-10T12:48:48.454Z,52.70
2018-04-10T12:51:18.265Z,52.30
2018-04-10T12:53:48.081Z,51.80
2018-04-10T12:56:17.894Z,52.10
2018-04-10T12:58:47.705Z,51.70
2018-04-10T13:01:17.512Z,51.30
2018-04-10T13:03:47.322Z,52.50
2018-04-10T13:06:17.128Z,51.60
2018-04-10T13:08:46.936Z,51.30
2018-04-10T13:11:16.748Z,50.90
2018-04-10T13:13:46.591Z,50.60
2018-04-10T13:16:16.382Z,49.70
2018-04-10T13:18:46.196Z,49.90
2018-04-10T13:21:16.009Z,50.80
2018-04-10T13:23:45.810Z,50.40
2018-04-10T13:26:15.617Z,49.90
2018-04-10T13:28:45.428Z,50.10
2018-04-10T13:31:15.999Z,50.10
2018-04-10T13:33:45.853Z,50.10
2018-04-10T13:36:16.433Z,49.80
2018-04-10T13:38:46.229Z,49.80
2018-04-10T13:41:16.050Z,49.70
2018-04-10T13:43:45.872Z,49.70
2018-04-10T13:46:15.677Z,50.00
2018-04-10T13:48:45.482Z,50.00
2018-04-10T13:51:15.291Z,49.10
2018-04-10T13:53:45.099Z,48.60
2018-04-10T13:56:14.909Z,48.60
2018-04-10T13:58:44.737Z,48.30
2018-04-10T14:01:14.534Z,48.80
2018-04-10T14:03:44.334Z,48.70
2018-04-10T14:06:14.204Z,48.40
2018-04-10T14:08:43.999Z,47.90
2018-04-10T14:11:13.811Z,48.20
2018-04-10T14:13:43.622Z,47.70
2018-04-10T14:16:13.425Z,47.40
2018-04-10T14:18:43.241Z,47.50
2018-04-10T14:21:13.047Z,46.70
2018-04-10T14:23:42.861Z,46.40
2018-04-10T14:26:12.671Z,46.30
2018-04-10T14:28:42.495Z,45.30
2018-04-10T14:31:12.296Z,44.80
2018-04-10T14:33:42.137Z,44.30
2018-04-10T14:36:11.936Z,44.50
2018-04-10T14:38:41.763Z,43.80
2018-04-10T14:41:11.562Z,43.40
2018-04-10T14:43:41.388Z,44.00
2018-04-10T14:46:11.203Z,44.00
2018-04-10T14:48:41.023Z,43.20
2018-04-10T14:51:10.822Z,42.40
2018-04-10T14:53:40.637Z,42.30
2018-04-10T14:56:10.451Z,43.70
2018-04-10T14:58:40.276Z,43.70
2018-04-10T15:01:10.082Z,44.00
2018-04-10T15:03:39.892Z,43.60
2018-04-10T15:06:09.700Z,43.70
2018-04-10T15:08:39.521Z,44.20
2018-04-10T15:11:09.348Z,44.40
2018-04-10T15:13:39.930Z,43.40
2018-04-10T15:16:09.741Z,43.30
2018-04-10T15:18:39.560Z,42.60
2018-04-10T15:21:09.358Z,42.80
2018-04-10T15:23:39.167Z,43.30
2018-04-10T15:26:08.980Z,42.40
2018-04-10T15:28:38.837Z,42.00
2018-04-10T15:31:08.615Z,41.90
2018-04-10T15:33:38.429Z,42.60
2018-04-10T15:36:08.224Z,41.80
2018-04-10T15:38:38.044Z,41.50
2018-04-10T15:41:07.852Z,41.70
2018-04-10T15:43:37.664Z,41.90
2018-04-10T15:46:07.472Z,42.30
2018-04-10T15:48:37.283Z,42.40
2018-04-10T15:51:07.089Z,42.00
2018-04-10T15:53:36.902Z,42.40
2018-04-10T15:56:06.712Z,42.50
2018-04-10T15:58:36.535Z,42.70
2018-04-10T16:01:06.341Z,43.40
2018-04-10T16:03:36.149Z,44.00
2018-04-10T16:06:05.956Z,44.40
2018-04-10T16:08:35.777Z,45.00
2018-04-10T16:11:05.576Z,45.20
2018-04-10T16:13:35.392Z,46.90
2018-04-10T16:16:05.205Z,47.00
2018-04-10T16:18:35.016Z,47.60
2018-04-10T16:21:04.820Z,48.30
2018-04-10T16:23:35.399Z,49.30
2018-04-10T16:26:05.214Z,49.20
2018-04-10T16:28:35.030Z,49.20
2018-04-10T16:31:04.830Z,49.40
2018-04-10T16:33:34.644Z,49.30
2018-04-10T16:36:04.453Z,49.90
2018-04-10T16:38:34.279Z,50.10
2018-04-10T16:41:04.094Z,50.40
2018-04-10T16:43:33.915Z,50.90
2018-04-10T16:46:03.720Z,50.80
2018-04-10T16:48:33.532Z,51.40
2018-04-10T16:51:03.340Z,52.20
2018-04-10T16:53:33.160Z,53.00
2018-04-10T16:56:02.963Z,53.50
2018-04-10T16:58:32.790Z,53.80
2018-04-10T17:01:02.603Z,53.90
2018-04-10T17:03:32.421Z,53.90
2018-04-10T17:06:02.239Z,54.60
2018-04-10T17:08:32.059Z,55.00
2018-04-10T17:11:02.631Z,55.90
2018-04-10T17:13:32.456Z,55.80
2018-04-10T17:16:02.292Z,56.70
2018-04-10T17:18:32.106Z,57.00
2018-04-10T17:21:01.952Z,57.20
2018-04-10T17:23:32.539Z,57.80
2018-04-10T17:26:02.354Z,57.70
2018-04-10T17:28:32.160Z,57.90
2018-04-10T17:31:01.978Z,58.30
2018-04-10T17:33:31.790Z,59.00
2018-04-10T17:36:01.609Z,59.60
2018-04-10T17:38:31.419Z,60.00
2018-04-10T17:41:01.233Z,60.10
2018-04-10T17:43:31.051Z,60.30
2018-04-10T17:46:00.871Z,60.30
2018-04-10T17:48:30.704Z,61.00
2018-04-10T17:51:01.286Z,62.60
2018-04-10T17:53:31.102Z,62.50
2018-04-10T17:56:00.943Z,62.90
2018-04-10T17:58:30.719Z,63.50
2018-04-10T18:01:00.539Z,63.50
2018-04-10T18:03:30.375Z,63.80
2018-04-10T18:06:00.176Z,64.70
2018-04-10T18:08:29.992Z,65.80
2018-04-10T18:10:59.800Z,65.90
2018-04-10T18:13:29.615Z,66.70
2018-04-10T18:15:59.437Z,66.60
2018-04-10T18:18:29.257Z,67.40
2018-04-10T18:20:59.833Z,68.10
2018-04-10T18:23:29.644Z,68.10
2018-04-10T18:25:59.476Z,69.00
2018-04-10T18:28:29.292Z,69.80
2018-04-10T18:30:59.122Z,70.10
2018-04-10T18:33:28.919Z,71.50
2018-04-10T18:35:58.731Z,71.40
2018-04-10T18:38:28.543Z,71.50
2018-04-10T18:40:58.346Z,71.50
2018-04-10T18:43:28.160Z,71.80
2018-04-10T18:45:57.986Z,72.40
2018-04-10T18:48:27.797Z,73.00
2018-04-10T18:50:58.400Z,73.70
2018-04-10T18:53:28.205Z,74.30
2018-04-10T18:55:58.031Z,74.30
2018-04-10T18:58:27.831Z,74.50
2018-04-10T19:00:57.648Z,74.90
2018-04-10T19:03:27.467Z,74.80
2018-04-10T20:30:46.933Z,89.20
2018-04-10T20:46:08.425Z,88.70
2018-04-10T20:48:39.381Z,89.50
2018-04-10T20:51:09.469Z,89.60
2018-04-10T20:53:40.223Z,90.10
2018-04-10T20:56:10.191Z,90.10
2018-04-10T20:58:40.209Z,90.40
2018-04-10T21:01:10.330Z,90.50
2018-04-10T21:03:41.089Z,91.50
2018-04-10T21:06:11.164Z,91.40
2018-04-10T21:08:41.176Z,91.30
2018-04-10T21:11:11.940Z,91.70
2018-04-10T21:13:41.916Z,91.80
2018-04-10T21:16:12.873Z,91.50
2018-04-10T21:18:42.878Z,92.10
2018-04-10T21:21:13.853Z,92.00
2018-04-10T21:23:44.560Z,92.10
2018-04-10T21:26:14.439Z,92.20
2018-04-10T21:28:44.459Z,92.30
2018-04-10T21:31:14.402Z,92.20
2018-04-10T21:33:44.322Z,92.30
2018-04-10T21:36:14.201Z,92.60
2018-04-10T21:38:44.166Z,92.50
2018-04-10T21:41:14.089Z,92.70
2018-04-10T21:43:44.836Z,92.60
2018-04-10T21:46:14.768Z,92.60
2018-04-10T21:48:45.406Z,92.60
2018-04-10T21:51:15.291Z,92.50
2018-04-10T21:53:46.009Z,93.10
2018-04-10T21:56:15.973Z,93.00
2018-04-10T21:58:46.609Z,93.70
2018-04-10T22:01:16.574Z,93.70
2018-04-10T22:03:46.476Z,93.80
2018-04-10T22:06:16.458Z,94.00
2018-04-10T22:08:46.419Z,93.90
2018-04-10T22:11:16.354Z,94.20
2018-04-10T22:13:47.057Z,94.30
2018-04-10T22:16:16.969Z,94.30
2018-04-10T22:18:46.854Z,94.30
2018-04-10T22:21:16.839Z,94.40
2018-04-10T22:23:47.825Z,94.50
2018-04-10T22:26:18.206Z,94.40
2018-04-10T22:28:48.178Z,95.00
2018-04-10T22:31:18.157Z,95.80
2018-04-10T22:33:48.756Z,94.60
2018-04-10T22:36:19.470Z,94.70
2018-04-10T22:38:50.196Z,94.60
2018-04-10T22:41:20.161Z,94.60
2018-04-10T22:43:50.785Z,94.60
2018-04-10T22:46:20.760Z,94.50
2018-04-10T22:48:50.669Z,94.80
2018-04-10T22:51:21.396Z,94.50
2018-04-10T22:53:51.277Z,94.50
2018-04-10T22:56:21.527Z,94.80
2018-04-10T22:58:51.395Z,94.80
2018-04-10T23:01:22.126Z,94.80
2018-04-10T23:03:51.997Z,94.80
2018-04-10T23:06:21.973Z,95.20
2018-04-10T23:08:52.610Z,95.20
2018-04-10T23:11:22.584Z,95.20
2018-04-10T23:13:52.507Z,95.20
2018-04-10T23:16:22.473Z,95.20
2018-04-10T23:18:53.113Z,95.50
2018-04-10T23:21:23.081Z,95.50
2018-04-10T23:23:52.977Z,95.50
2018-04-10T23:26:23.694Z,96.00
2018-04-10T23:28:53.592Z,95.60
2018-04-10T23:31:23.576Z,95.30
2018-04-10T23:33:53.481Z,95.30
2018-04-10T23:36:23.369Z,95.60
2018-04-10T23:38:53.242Z,95.60
2018-04-10T23:41:23.238Z,95.80
2018-04-10T23:43:53.989Z,95.90
2018-04-10T23:46:24.686Z,95.80
2018-04-10T23:48:54.576Z,95.80
2018-04-10T23:51:24.564Z,95.60
2018-04-10T23:53:55.278Z,95.80
2018-04-10T23:56:25.307Z,95.70
2018-04-10T23:58:56.007Z,95.80
